createdAt,value
2023-01-02T00:01:32.827Z,9.76
2023-01-02T00:04:38.228Z,9.72
2023-01-02T00:07:43.390Z,9.76
2023-01-02T00:10:52.644Z,9.74
2023-01-02T00:13:58.481Z,9.72
2023-01-02T00:17:03.806Z,9.69
2023-01-02T00:20:09.692Z,9.70
2023-01-02T00:23:14.885Z,9.67
2023-01-02T00:26:20.500Z,9.68
2023-01-02T00:29:26.072Z,9.68
2023-01-02T00:32:31.426Z,9.68
2023-01-02T00:35:38.319Z,9.68
2023-01-02T00:38:43.497Z,9.64
2023-01-02T00:41:48.809Z,9.67
2023-01-02T00:44:54.069Z,9.69
2023-01-02T00:47:59.387Z,9.71
2023-01-02T00:51:04.705Z,9.66
2023-01-02T00:54:10.261Z,9.63
2023-01-02T00:57:15.494Z,9.67
2023-01-02T01:00:24.033Z,9.59
2023-01-02T01:03:30.340Z,9.61
2023-01-02T01:06:35.623Z,9.56
2023-01-02T01:09:41.000Z,9.54
2023-01-02T01:12:46.227Z,9.58
2023-01-02T01:15:51.289Z,9.57
2023-01-02T01:18:57.906Z,9.51
2023-01-02T01:22:03.767Z,9.51
2023-01-02T01:25:09.517Z,9.55
2023-01-02T01:28:14.758Z,9.55
2023-01-02T01:31:21.475Z,9.54
2023-01-02T01:34:26.696Z,9.54
2023-01-02T01:37:32.357Z,9.45
2023-01-02T01:40:39.959Z,9.42
2023-01-02T01:44:00.322Z,9.42
2023-01-02T01:47:06.110Z,9.37
2023-01-02T01:50:26.770Z,9.32
2023-01-02T01:53:32.820Z,9.34
2023-01-02T01:56:43.959Z,9.34
2023-01-02T01:59:50.456Z,9.21
2023-01-02T02:03:04.822Z,9.31
2023-01-02T02:06:10.964Z,9.39
2023-01-02T02:09:25.222Z,9.36
2023-01-02T02:12:33.293Z,9.28
2023-01-02T02:15:47.420Z,9.26
2023-01-02T02:19:29.462Z,9.26
2023-01-02T02:22:54.910Z,9.22
2023-01-02T02:26:30.957Z,9.22
2023-01-02T02:29:57.401Z,9.15
2023-01-02T02:33:47.851Z,9.19
2023-01-02T02:37:01.256Z,9.17
2023-01-02T02:40:43.756Z,9.23
2023-01-02T02:44:06.272Z,9.16
2023-01-02T02:47:22.518Z,9.10
2023-01-02T02:50:40.353Z,9.18
2023-01-02T02:53:54.192Z,9.14
2023-01-02T02:57:00.852Z,9.22
2023-01-02T03:00:09.051Z,9.20
2023-01-02T03:03:22.937Z,9.15
2023-01-02T03:06:45.823Z,9.10
2023-01-02T03:10:00.396Z,9.10
2023-01-02T03:13:24.672Z,9.10
2023-01-02T03:16:40.880Z,9.05
2023-01-02T03:19:52.890Z,9.04
2023-01-02T03:23:04.430Z,9.14
2023-01-02T03:26:13.469Z,9.10
2023-01-02T03:29:30.737Z,9.17
2023-01-02T03:32:43.345Z,9.17
2023-01-02T03:35:55.988Z,9.23
2023-01-02T03:39:08.173Z,9.21
2023-01-02T03:42:21.457Z,9.06
2023-01-02T03:45:34.224Z,9.13
2023-01-02T03:49:17.083Z,9.02
2023-01-02T03:52:26.087Z,8.99
2023-01-02T03:55:35.343Z,9.01
2023-01-02T03:58:53.546Z,9.05
2023-01-02T04:02:07.697Z,9.06
2023-01-02T04:05:24.825Z,9.11
2023-01-02T04:08:45.307Z,9.11
2023-01-02T04:12:00.585Z,9.16
2023-01-02T04:15:12.624Z,9.07
2023-01-02T04:18:30.572Z,9.05
2023-01-02T04:21:40.590Z,8.99
2023-01-02T04:24:52.459Z,9.04
2023-01-02T04:28:23.570Z,9.04
2023-01-02T04:31:42.981Z,9.04
2023-01-02T04:34:50.257Z,9.08
2023-01-02T04:37:56.049Z,9.05
2023-01-02T04:41:04.691Z,9.03
2023-01-02T04:44:10.096Z,9.05
2023-01-02T04:47:21.514Z,9.11
2023-01-02T04:50:27.670Z,9.11
2023-01-02T04:53:33.463Z,9.04
2023-01-02T04:56:38.954Z,9.10
2023-01-02T04:59:44.253Z,9.11
2023-01-02T05:02:49.575Z,9.19
2023-01-02T05:06:01.733Z,9.13
2023-01-02T05:09:07.204Z,9.14
2023-01-02T05:12:12.361Z,9.16
2023-01-02T05:15:17.722Z,9.10
2023-01-02T05:18:23.456Z,9.18
2023-01-02T05:21:47.503Z,9.20
2023-01-02T05:24:52.628Z,9.22
2023-01-02T05:27:58.530Z,9.23
2023-01-02T05:31:04.208Z,9.20
2023-01-02T05:34:13.947Z,9.22
2023-01-02T05:37:19.198Z,9.19
2023-01-02T05:40:24.747Z,9.20
2023-01-02T05:43:36.316Z,9.18
2023-01-02T05:46:42.038Z,9.22
2023-01-02T05:49:47.726Z,9.24
2023-01-02T05:52:53.204Z,9.24
2023-01-02T05:56:10.587Z,9.21
2023-01-02T05:59:16.540Z,9.25
2023-01-02T06:02:23.931Z,9.23
2023-01-02T06:05:29.754Z,9.27
2023-01-02T06:08:35.970Z,9.15
2023-01-02T06:11:42.325Z,9.24
2023-01-02T06:14:47.932Z,9.21
2023-01-02T06:17:53.676Z,9.26
2023-01-02T06:21:04.438Z,9.26
2023-01-02T06:24:10.228Z,9.26
2023-01-02T06:27:15.788Z,9.29
2023-01-02T06:30:20.939Z,9.25
2023-01-02T06:33:26.329Z,9.17
2023-01-02T06:36:34.586Z,9.18
2023-01-02T06:39:40.186Z,9.17
2023-01-02T06:42:45.807Z,9.16
2023-01-02T06:45:52.026Z,9.18
2023-01-02T06:48:58.227Z,9.24
2023-01-02T06:52:03.743Z,9.20
2023-01-02T06:55:09.683Z,9.22
2023-01-02T06:58:19.329Z,9.16
2023-01-02T07:01:25.396Z,9.25
2023-01-02T07:04:30.882Z,9.23
2023-01-02T07:07:36.236Z,9.24
2023-01-02T07:10:41.462Z,9.21
2023-01-02T07:13:50.863Z,9.19
2023-01-02T07:16:56.370Z,9.20
2023-01-02T07:20:02.402Z,9.23
2023-01-02T07:23:08.223Z,9.25
2023-01-02T07:26:14.286Z,9.28
2023-01-02T07:29:19.709Z,9.30
2023-01-02T07:32:27.516Z,9.33
2023-01-02T07:35:33.645Z,9.31
2023-01-02T07:38:39.780Z,9.36
2023-01-02T07:41:45.601Z,9.29
2023-01-02T07:44:53.505Z,9.34
2023-01-02T07:47:59.321Z,9.32
2023-01-02T07:51:08.491Z,9.29
2023-01-02T07:54:14.034Z,9.31
2023-01-02T07:57:19.871Z,9.34
2023-01-02T08:00:25.497Z,9.39
2023-01-02T08:03:32.850Z,9.28
2023-01-02T08:06:41.794Z,9.33
2023-01-02T08:09:47.574Z,9.33
2023-01-02T08:12:53.057Z,9.35
2023-01-02T08:15:58.639Z,9.42
2023-01-02T08:19:04.363Z,9.43
2023-01-02T08:22:10.185Z,9.35
2023-01-02T08:25:16.726Z,9.42
2023-01-02T08:28:22.424Z,9.43
2023-01-02T08:31:28.183Z,9.50
2023-01-02T08:34:35.378Z,9.53
2023-01-02T08:37:43.377Z,9.35
2023-01-02T08:40:52.741Z,9.44
2023-01-02T08:43:59.137Z,9.43
2023-01-02T08:47:05.958Z,9.52
2023-01-02T08:50:11.527Z,9.49
2023-01-02T08:53:18.080Z,9.54
2023-01-02T08:56:26.754Z,9.57
2023-01-02T08:59:32.690Z,9.59
2023-01-02T09:02:38.551Z,9.51
2023-01-02T09:05:44.291Z,9.62
2023-01-02T09:08:55.745Z,9.57
2023-01-02T09:12:01.744Z,9.55
2023-01-02T09:15:08.110Z,9.48
2023-01-02T09:18:13.460Z,9.64
2023-01-02T09:21:19.418Z,9.58
2023-01-02T09:24:25.037Z,9.67
2023-01-02T09:27:30.912Z,9.63
2023-01-02T09:30:36.930Z,9.62
2023-01-02T09:33:44.016Z,9.63
2023-01-02T09:36:49.500Z,9.52
2023-01-02T09:39:55.336Z,9.79
2023-01-02T09:43:01.694Z,9.75
2023-01-02T09:46:20.513Z,9.79
2023-01-02T09:49:33.363Z,9.86
2023-01-02T09:52:43.588Z,9.74
2023-01-02T09:56:17.729Z,9.82
2023-01-02T09:59:34.228Z,9.84
2023-01-02T10:03:07.629Z,9.68
2023-01-02T10:06:33.778Z,9.76
2023-01-02T10:10:01.027Z,9.80
2023-01-02T10:13:21.676Z,9.80
2023-01-02T10:16:38.116Z,9.86
2023-01-02T10:20:08.359Z,9.81
2023-01-02T10:23:20.441Z,9.73
2023-01-02T10:26:32.914Z,9.89
2023-01-02T10:30:02.298Z,9.98
2023-01-02T10:33:19.294Z,10.10
2023-01-02T10:36:32.252Z,10.00
2023-01-02T10:39:38.172Z,10.05
2023-01-02T10:42:44.653Z,10.13
2023-01-02T10:45:50.418Z,10.09
2023-01-02T10:48:57.746Z,10.14
2023-01-02T10:52:27.432Z,10.19
2023-01-02T10:55:44.517Z,10.14
2023-01-02T10:58:53.467Z,10.22
2023-01-02T11:02:00.746Z,10.26
2023-01-02T11:05:09.172Z,10.30
2023-01-02T11:08:20.326Z,10.15
2023-01-02T11:11:27.665Z,10.16
2023-01-02T11:14:35.679Z,10.11
2023-01-02T11:17:44.439Z,10.15
2023-01-02T11:20:55.360Z,10.01
2023-01-02T11:24:05.387Z,10.19
2023-01-02T11:27:11.001Z,10.22
2023-01-02T11:30:43.165Z,10.22
2023-01-02T11:33:48.713Z,10.14
2023-01-02T11:37:09.405Z,10.30
2023-01-02T11:40:28.327Z,10.32
2023-01-02T11:43:52.300Z,10.30
2023-01-02T11:46:58.723Z,10.31
2023-01-02T11:50:05.459Z,10.32
2023-01-02T11:53:13.938Z,10.19
2023-01-02T11:56:30.779Z,10.25
2023-01-02T11:59:45.638Z,10.23
2023-01-02T12:02:54.734Z,10.28
2023-01-02T12:06:23.665Z,10.32
2023-01-02T12:09:56.263Z,10.46
2023-01-02T12:13:27.814Z,10.48
2023-01-02T12:16:59.544Z,10.37
2023-01-02T12:20:26.557Z,10.45
2023-01-02T12:23:46.618Z,10.32
2023-01-02T12:27:18.842Z,10.37
2023-01-02T12:30:24.085Z,10.32
2023-01-02T12:33:39.081Z,10.25
2023-01-02T12:36:50.772Z,10.32
2023-01-02T12:40:05.179Z,10.26
2023-01-02T12:43:29.546Z,10.36
2023-01-02T12:46:40.790Z,10.32
2023-01-02T12:50:22.137Z,10.16
2023-01-02T12:53:42.454Z,10.17
2023-01-02T12:57:16.923Z,10.19
2023-01-02T13:01:03.067Z,10.21
2023-01-02T13:04:20.967Z,10.30
2023-01-02T13:07:35.841Z,10.37
2023-01-02T13:10:41.745Z,10.48
2023-01-02T13:13:47.623Z,10.49
2023-01-02T13:17:19.486Z,10.44
2023-01-02T13:20:31.228Z,10.37
2023-01-02T13:23:49.003Z,10.40
2023-01-02T13:26:57.020Z,10.34
2023-01-02T13:30:03.573Z,10.44
2023-01-02T13:33:34.090Z,10.42
2023-01-02T13:36:46.615Z,10.37
2023-01-02T13:40:04.556Z,10.32
2023-01-02T13:43:17.127Z,10.24
2023-01-02T13:50:24.103Z,10.40
2023-01-02T13:53:33.300Z,10.38
2023-01-02T13:57:17.064Z,10.52
2023-01-02T14:00:37.832Z,10.58
2023-01-02T14:03:43.184Z,10.40
2023-01-02T14:06:53.811Z,10.39
2023-01-02T14:10:11.732Z,10.34
2023-01-02T14:13:25.972Z,10.43
2023-01-02T14:16:34.284Z,10.40
2023-01-02T14:19:39.824Z,10.38
2023-01-02T14:22:53.308Z,10.43
2023-01-02T14:25:58.742Z,10.44
2023-01-02T14:29:16.994Z,10.38
2023-01-02T14:32:34.349Z,10.45
2023-01-02T14:35:48.594Z,10.35
2023-01-02T14:38:57.026Z,10.34
2023-01-02T14:42:51.280Z,10.22
2023-01-02T14:46:13.305Z,10.24
2023-01-02T14:49:27.118Z,10.32
2023-01-02T14:52:38.007Z,10.23
2023-01-02T14:55:45.785Z,10.19
2023-01-02T14:58:53.643Z,10.21
2023-01-02T15:02:07.200Z,10.21
2023-01-02T15:05:19.098Z,10.28
2023-01-02T15:08:34.396Z,10.27
2023-01-02T15:12:16.183Z,10.27
2023-01-02T15:15:28.622Z,10.32
2023-01-02T15:18:35.761Z,10.33
2023-01-02T15:21:40.966Z,10.33
2023-01-02T15:24:53.319Z,10.35
2023-01-02T15:27:58.475Z,10.31
2023-01-02T15:31:12.963Z,10.30
2023-01-02T15:34:25.904Z,10.32
2023-01-02T15:37:31.742Z,10.33
2023-01-02T15:40:38.197Z,10.19
2023-01-02T15:44:02.477Z,10.26
2023-01-02T15:47:10.185Z,10.31
2023-01-02T15:50:22.645Z,10.29
2023-01-02T15:53:43.160Z,10.25
2023-01-02T15:56:49.368Z,10.28
2023-01-02T15:59:56.186Z,10.26
2023-01-02T16:03:02.846Z,10.25
2023-01-02T16:06:14.699Z,10.23
2023-01-02T16:09:27.308Z,10.22
2023-01-02T16:12:33.779Z,10.16
2023-01-02T16:15:39.211Z,10.22
2023-01-02T16:18:59.075Z,10.24
2023-01-02T16:22:18.204Z,10.24
2023-01-02T16:25:29.389Z,10.22
2023-01-02T16:28:40.866Z,10.22
2023-01-02T16:32:01.308Z,10.21
2023-01-02T16:35:21.927Z,10.18
2023-01-02T16:38:28.465Z,10.21
2023-01-02T16:41:48.331Z,10.19
2023-01-02T16:44:56.126Z,10.16
2023-01-02T16:48:03.808Z,10.19
2023-01-02T16:51:09.834Z,10.17
2023-01-02T16:54:16.512Z,10.21
2023-01-02T16:57:23.563Z,10.18
2023-01-02T17:00:28.926Z,10.18
2023-01-02T17:03:33.945Z,10.15
2023-01-02T17:06:39.550Z,10.17
2023-01-02T17:09:44.675Z,10.17
2023-01-02T17:12:49.967Z,10.18
2023-01-02T17:15:56.238Z,10.18
2023-01-02T17:19:02.071Z,10.15
2023-01-02T17:22:07.617Z,10.13
2023-01-02T17:25:15.939Z,10.16
2023-01-02T17:28:21.776Z,10.13
2023-01-02T17:31:27.372Z,10.11
2023-01-02T17:34:34.394Z,10.08
2023-01-02T17:37:40.209Z,10.09
2023-01-02T17:40:46.396Z,10.13
2023-01-02T17:44:02.484Z,10.16
2023-01-02T17:47:39.286Z,10.07
2023-01-02T17:50:36.433Z,10.05
2023-01-02T17:53:48.241Z,10.11
2023-01-02T17:56:54.283Z,10.14
2023-01-02T17:59:59.701Z,10.13
2023-01-02T18:03:05.499Z,10.10
2023-01-02T18:06:12.270Z,10.15
2023-01-02T18:09:19.688Z,10.16
2023-01-02T18:12:26.387Z,10.16
2023-01-02T18:15:32.829Z,10.13
2023-01-02T18:18:39.169Z,10.13
2023-01-02T18:21:45.723Z,10.13
2023-01-02T18:24:52.653Z,10.13
2023-01-02T18:28:25.473Z,10.13
2023-01-02T18:31:35.282Z,10.08
2023-01-02T18:34:48.042Z,10.12
2023-01-02T18:37:55.853Z,10.08
2023-01-02T18:41:30.264Z,10.09
2023-01-02T18:44:35.893Z,10.09
2023-01-02T18:47:42.362Z,10.09
2023-01-02T18:51:00.438Z,10.09
2023-01-02T18:54:16.481Z,10.09
2023-01-02T18:57:23.359Z,10.14
2023-01-02T19:00:32.627Z,10.07
2023-01-02T19:03:38.911Z,10.02
2023-01-02T19:06:50.666Z,10.11
2023-01-02T19:10:08.541Z,10.08
2023-01-02T19:13:24.939Z,10.12
2023-01-02T19:16:31.156Z,10.11
2023-01-02T19:19:40.564Z,10.14
2023-01-02T19:22:46.581Z,10.10
2023-01-02T19:25:53.899Z,10.07
2023-01-02T19:29:27.912Z,10.06
2023-01-02T19:32:36.480Z,9.99
2023-01-02T19:36:00.219Z,10.07
2023-01-02T19:39:23.135Z,10.09
2023-01-02T19:42:32.356Z,10.02
2023-01-02T19:45:38.193Z,10.02
2023-01-02T19:48:44.009Z,9.97
2023-01-02T19:51:50.215Z,9.98
2023-01-02T19:54:56.222Z,9.98
2023-01-02T19:58:01.579Z,9.98
2023-01-02T20:01:07.130Z,9.94
2023-01-02T20:04:12.741Z,9.96
2023-01-02T20:07:18.584Z,9.96
2023-01-02T20:10:24.627Z,10.02
2023-01-02T20:13:31.581Z,9.94
2023-01-02T20:16:37.603Z,9.96
2023-01-02T20:19:43.489Z,9.88
2023-01-02T20:22:52.251Z,9.89
2023-01-02T20:25:57.840Z,9.88
2023-01-02T20:29:04.537Z,9.87
2023-01-02T20:32:10.903Z,9.89
2023-01-02T20:35:16.142Z,9.93
2023-01-02T20:38:21.974Z,9.91
2023-01-02T20:41:28.133Z,9.92
2023-01-02T20:44:34.352Z,9.88
2023-01-02T20:47:39.944Z,9.95
2023-01-02T20:50:46.445Z,9.93
2023-01-02T20:53:52.354Z,9.95
2023-01-02T20:56:58.007Z,9.96
2023-01-02T21:00:09.985Z,9.98
2023-01-02T21:03:15.971Z,9.92
2023-01-02T21:06:21.972Z,9.91
2023-01-02T21:09:27.559Z,9.95
2023-01-02T21:12:52.046Z,9.95
2023-01-02T21:15:58.337Z,9.90
2023-01-02T21:19:04.406Z,9.89
2023-01-02T21:22:10.305Z,9.96
2023-01-02T21:25:15.615Z,9.94
2023-01-02T21:28:22.238Z,9.98
2023-01-02T21:31:27.704Z,9.94
2023-01-02T21:34:33.263Z,9.98
2023-01-02T21:37:39.190Z,9.95
2023-01-02T21:40:45.784Z,9.97
2023-01-02T21:43:51.824Z,10.01
2023-01-02T21:46:58.363Z,9.97
2023-01-02T21:50:05.139Z,9.96
2023-01-02T21:53:10.989Z,9.96
2023-01-02T21:56:16.863Z,9.94
2023-01-02T21:59:25.494Z,10.01
2023-01-02T22:02:38.219Z,9.98
2023-01-02T22:05:44.527Z,9.98
2023-01-02T22:08:50.037Z,9.94
2023-01-02T22:11:55.661Z,9.93
2023-01-02T22:15:01.568Z,9.90
2023-01-02T22:18:06.945Z,9.82
2023-01-02T22:21:12.551Z,9.87
2023-01-02T22:24:19.170Z,9.89
2023-01-02T22:27:25.156Z,9.82
2023-01-02T22:30:34.837Z,9.79
2023-01-02T22:33:42.047Z,9.83
2023-01-02T22:36:47.881Z,9.83
2023-01-02T22:39:53.535Z,9.80
2023-01-02T22:43:02.664Z,9.73
2023-01-02T22:46:18.118Z,9.81
2023-01-02T22:49:27.124Z,9.76
2023-01-02T22:52:33.582Z,9.79
2023-01-02T22:55:40.739Z,9.85
2023-01-02T22:58:47.604Z,9.64
2023-01-02T23:01:53.542Z,9.66
2023-01-02T23:04:59.216Z,9.73
2023-01-02T23:08:05.029Z,9.74
2023-01-02T23:11:11.656Z,9.74
2023-01-02T23:14:17.155Z,9.77
2023-01-02T23:17:41.321Z,9.71
2023-01-02T23:20:46.476Z,9.79
2023-01-02T23:23:52.658Z,9.77
2023-01-02T23:27:01.137Z,9.81
2023-01-02T23:30:07.324Z,9.80
2023-01-02T23:33:12.772Z,9.80
2023-01-02T23:36:18.675Z,9.72
2023-01-02T23:39:26.954Z,9.68
2023-01-02T23:42:32.352Z,9.71
2023-01-02T23:45:38.041Z,9.74
2023-01-02T23:48:43.386Z,9.76
2023-01-02T23:51:49.303Z,9.74
2023-01-02T23:54:54.785Z,9.72
2023-01-02T23:57:59.947Z,9.76
